createdAt,value
2023-01-13T00:07:32.142Z,5.25
2023-01-13T00:11:40.577Z,5.22
2023-01-13T00:15:55.659Z,5.28
2023-01-13T00:20:12.365Z,5.36
2023-01-13T00:24:43.028Z,5.40
2023-01-13T00:28:49.347Z,5.41
2023-01-13T00:33:08.014Z,5.41
2023-01-13T00:41:40.398Z,5.34
2023-01-13T00:45:58.896Z,5.34
2023-01-13T00:50:17.971Z,5.36
2023-01-13T00:59:02.489Z,5.42
2023-01-13T01:03:32.384Z,5.41
2023-01-13T01:08:01.761Z,5.41
2023-01-13T01:12:18.867Z,5.45
2023-01-13T01:20:53.263Z,5.51
2023-01-13T01:25:11.231Z,5.55
2023-01-13T01:29:41.784Z,5.60
2023-01-13T01:34:10.355Z,5.64
2023-01-13T01:42:54.381Z,5.71
2023-01-13T01:47:24.676Z,5.69
2023-01-13T01:51:41.609Z,5.71
2023-01-13T01:56:11.934Z,5.72
2023-01-13T02:00:30.067Z,5.78
2023-01-13T02:04:59.017Z,5.82
2023-01-13T02:09:16.113Z,5.85
2023-01-13T02:18:02.501Z,5.75
2023-01-13T02:22:55.142Z,5.71
2023-01-13T02:31:39.530Z,5.63
2023-01-13T02:36:20.948Z,5.65
2023-01-13T02:40:32.446Z,5.69
2023-01-13T02:44:59.829Z,5.70
2023-01-13T02:49:16.213Z,5.73
2023-01-13T02:53:34.730Z,5.77
2023-01-13T03:01:59.141Z,5.80
2023-01-13T03:06:07.217Z,5.78
2023-01-13T03:10:40.468Z,5.77
2023-01-13T03:15:05.027Z,5.73
2023-01-13T03:19:41.663Z,5.70
2023-01-13T03:24:03.900Z,5.63
2023-01-13T03:28:24.554Z,5.56
2023-01-13T03:32:32.856Z,5.55
2023-01-13T03:36:49.367Z,5.56
2023-01-13T03:41:26.788Z,5.56
2023-01-13T03:45:45.373Z,5.61
2023-01-13T03:50:04.581Z,5.65
2023-01-13T03:54:14.988Z,5.67
2023-01-13T04:03:07.065Z,5.73
2023-01-13T04:11:40.420Z,5.76
2023-01-13T04:15:56.990Z,5.76
2023-01-13T04:20:02.188Z,5.73
2023-01-13T04:24:07.551Z,5.72
2023-01-13T04:28:13.007Z,5.71
2023-01-13T04:32:18.415Z,5.72
2023-01-13T04:36:23.780Z,5.70
2023-01-13T04:40:31.159Z,5.70
2023-01-13T04:44:36.545Z,5.68
2023-01-13T04:48:41.911Z,5.66
2023-01-13T04:52:47.298Z,5.64
2023-01-13T04:56:54.735Z,5.64
2023-01-13T05:01:00.160Z,5.65
2023-01-13T05:09:18.864Z,5.60
2023-01-13T05:13:31.214Z,5.55
2023-01-13T05:17:38.269Z,5.52
2023-01-13T05:21:50.603Z,5.52
2023-01-13T05:25:55.940Z,5.51
2023-01-13T05:34:19.377Z,5.44
2023-01-13T05:38:24.722Z,5.43
2023-01-13T05:42:36.839Z,5.42
2023-01-13T05:55:18.859Z,5.32
2023-01-13T05:59:37.708Z,5.28
2023-01-13T06:12:18.568Z,5.15
2023-01-13T06:16:45.894Z,5.13
2023-01-13T06:25:06.167Z,5.10
2023-01-13T06:29:12.461Z,5.12
2023-01-13T06:33:16.962Z,5.17
2023-01-13T06:37:33.194Z,5.24
2023-01-13T06:41:44.476Z,5.26
2023-01-13T06:45:45.389Z,5.29
2023-01-13T06:49:35.347Z,5.25
2023-01-13T06:53:27.379Z,5.24
2023-01-13T06:57:29.239Z,5.21
2023-01-13T07:07:16.502Z,5.30
2023-01-13T07:11:23.662Z,5.31
2023-01-13T07:15:31.025Z,5.35
2023-01-13T07:20:01.509Z,5.42
2023-01-13T07:24:07.801Z,5.47
2023-01-13T07:32:39.471Z,5.60
2023-01-13T07:36:54.846Z,5.68
2023-01-13T07:41:11.932Z,5.79
2023-01-13T07:45:28.502Z,5.87
2023-01-13T07:49:49.085Z,5.96
2023-01-13T07:58:19.776Z,6.17
2023-01-13T08:02:37.691Z,6.24
2023-01-13T08:06:53.082Z,6.32
2023-01-13T08:11:10.331Z,6.38
2023-01-13T08:19:58.329Z,6.52
2023-01-13T08:32:53.596Z,6.59
2023-01-13T08:37:20.286Z,6.64
2023-01-13T08:41:59.917Z,6.73
2023-01-13T08:46:18.314Z,6.88
2023-01-13T08:50:46.759Z,7.01
2023-01-13T08:55:14.304Z,7.18
2023-01-13T09:03:56.077Z,7.54
2023-01-13T09:08:10.166Z,7.67
2023-01-13T09:13:53.881Z,7.82
2023-01-13T09:18:25.696Z,7.82
2023-01-13T09:27:14.961Z,7.74
2023-01-13T09:31:46.426Z,7.70
2023-01-13T09:40:32.749Z,7.58
2023-01-13T09:45:07.549Z,7.61
2023-01-13T09:49:59.030Z,7.70
2023-01-13T09:53:28.566Z,7.92
2023-01-13T09:57:08.039Z,8.01
2023-01-13T10:10:36.095Z,8.35
2023-01-13T10:19:24.051Z,8.51
2023-01-13T10:23:29.064Z,8.60
2023-01-13T10:27:38.112Z,8.54
2023-01-13T10:31:46.748Z,8.43
2023-01-13T10:36:05.072Z,8.41
2023-01-13T10:39:49.846Z,8.34
2023-01-13T10:52:17.072Z,8.30
2023-01-13T10:56:03.927Z,8.25
2023-01-13T11:00:10.773Z,8.17
2023-01-13T11:04:18.875Z,8.21
2023-01-13T11:08:29.864Z,8.33
2023-01-13T11:20:50.680Z,8.28
2023-01-13T11:28:29.875Z,8.16
2023-01-13T11:32:56.378Z,8.16
2023-01-13T11:37:08.612Z,8.10
2023-01-13T11:41:20.631Z,8.03
2023-01-13T11:45:19.679Z,8.00
2023-01-13T11:49:06.607Z,8.01
2023-01-13T11:53:31.303Z,7.94
2023-01-13T12:05:45.567Z,7.93
2023-01-13T12:13:34.527Z,7.76
2023-01-13T12:17:36.550Z,7.67
2023-01-13T12:22:00.461Z,7.61
2023-01-13T12:25:47.540Z,7.55
2023-01-13T12:33:29.565Z,7.51
2023-01-13T12:45:53.487Z,7.34
2023-01-13T12:49:40.598Z,7.31
2023-01-13T12:54:02.511Z,7.24
2023-01-13T12:58:02.316Z,7.16
2023-01-13T13:09:41.504Z,7.19
2023-01-13T13:13:41.494Z,7.27
2023-01-13T13:17:52.490Z,7.33
2023-01-13T13:29:42.054Z,7.26
2023-01-13T13:33:25.215Z,7.24
2023-01-13T13:37:21.475Z,7.18
2023-01-13T13:41:27.535Z,7.13
2023-01-13T13:45:21.299Z,7.13
2023-01-13T13:49:30.399Z,7.12
2023-01-13T13:53:47.227Z,7.12
2023-01-13T14:05:42.479Z,7.09
2023-01-13T14:09:37.390Z,7.07
2023-01-13T14:16:59.451Z,6.91
2023-01-13T14:20:57.356Z,6.82
2023-01-13T14:24:57.517Z,6.79
2023-01-13T14:28:55.358Z,6.74
2023-01-13T14:33:06.342Z,6.69
2023-01-13T14:37:04.347Z,6.64
2023-01-13T14:41:12.314Z,6.65
2023-01-13T14:45:09.134Z,6.71
2023-01-13T14:49:18.095Z,6.82
2023-01-13T14:56:54.296Z,6.97
2023-01-13T15:00:41.274Z,7.01
2023-01-13T15:04:40.272Z,7.06
2023-01-13T15:08:45.342Z,7.07
2023-01-13T15:12:41.248Z,7.06
2023-01-13T15:16:32.834Z,7.04
2023-01-13T15:20:22.246Z,7.00
2023-01-13T15:24:09.298Z,6.97
2023-01-13T15:27:56.239Z,6.89
2023-01-13T15:31:56.106Z,6.75
2023-01-13T15:36:30.232Z,6.59
2023-01-13T15:39:45.265Z,6.48
2023-01-13T15:43:50.201Z,6.41
2023-01-13T15:47:49.272Z,6.31
2023-01-13T15:55:30.233Z,6.17
2023-01-13T15:59:52.223Z,6.13
2023-01-13T16:03:15.353Z,6.06
2023-01-13T16:06:24.563Z,6.06
2023-01-13T16:10:19.321Z,6.05
2023-01-13T16:13:58.211Z,6.03
2023-01-13T16:18:21.126Z,6.01
2023-01-13T16:22:22.402Z,5.98
2023-01-13T16:26:52.275Z,5.96
2023-01-13T16:31:08.761Z,5.96
2023-01-13T16:35:12.365Z,5.99
2023-01-13T16:43:19.918Z,5.95
2023-01-13T16:47:34.243Z,5.94
2023-01-13T16:51:17.956Z,5.95
2023-01-13T16:56:02.753Z,5.98
2023-01-13T16:59:28.031Z,5.96
2023-01-13T17:03:30.949Z,5.95
2023-01-13T17:07:57.839Z,5.90
2023-01-13T17:11:44.817Z,5.88
2023-01-13T17:15:53.055Z,5.83
2023-01-13T17:20:12.824Z,5.79
2023-01-13T17:24:29.866Z,5.74
2023-01-13T17:31:37.671Z,5.68
2023-01-13T17:34:48.780Z,5.67
2023-01-13T17:37:53.846Z,5.68
2023-01-13T17:41:04.883Z,5.72
2023-01-13T17:44:31.511Z,5.74
2023-01-13T17:47:41.482Z,5.77
2023-01-13T17:50:50.364Z,5.82
2023-01-13T17:54:15.239Z,5.85
2023-01-13T17:57:38.347Z,5.86
2023-01-13T18:00:46.018Z,5.86
2023-01-13T18:04:21.953Z,5.86
2023-01-13T18:07:29.043Z,5.85
2023-01-13T18:10:34.077Z,5.85
2023-01-13T18:14:17.798Z,5.84
2023-01-13T18:17:21.595Z,5.83
2023-01-13T18:20:42.999Z,5.81
2023-01-13T18:24:04.666Z,5.74
2023-01-13T18:27:24.424Z,5.68
2023-01-13T18:30:27.391Z,5.61
2023-01-13T18:33:30.510Z,5.55
2023-01-13T18:36:33.787Z,5.51
2023-01-13T18:39:37.604Z,5.48
2023-01-13T18:42:56.425Z,5.44
2023-01-13T18:45:59.709Z,5.39
2023-01-13T18:49:02.961Z,5.35
2023-01-13T18:52:06.297Z,5.31
2023-01-13T18:55:10.601Z,5.28
2023-01-13T18:58:13.709Z,5.26
2023-01-13T19:01:16.968Z,5.26
2023-01-13T19:04:20.201Z,5.24
2023-01-13T19:07:27.108Z,5.21
2023-01-13T19:10:32.712Z,5.20
2023-01-13T19:13:36.594Z,5.17
2023-01-13T19:16:39.772Z,5.13
2023-01-13T19:19:49.018Z,5.12
2023-01-13T19:22:54.546Z,5.10
2023-01-13T19:26:02.279Z,5.07
2023-01-13T19:29:05.314Z,5.05
2023-01-13T19:32:08.478Z,5.03
2023-01-13T19:35:13.224Z,5.00
2023-01-13T19:38:16.231Z,4.98
2023-01-13T19:41:38.237Z,4.96
2023-01-13T19:44:59.792Z,4.94
2023-01-13T19:48:05.285Z,4.93
2023-01-13T19:51:08.512Z,4.92
2023-01-13T19:54:11.529Z,4.92
2023-01-13T19:57:15.319Z,4.91
2023-01-13T20:00:21.155Z,4.94
2023-01-13T20:03:27.021Z,4.93
2023-01-13T20:06:31.946Z,4.93
2023-01-13T20:09:35.900Z,4.93
2023-01-13T20:12:39.771Z,4.92
2023-01-13T20:15:44.139Z,4.92
2023-01-13T20:18:51.649Z,4.94
2023-01-13T20:21:54.588Z,4.97
2023-01-13T20:24:57.687Z,5.01
2023-01-13T20:28:02.409Z,5.06
2023-01-13T20:31:07.986Z,5.09
2023-01-13T20:34:11.567Z,5.10
2023-01-13T20:37:14.687Z,5.09
2023-01-13T20:40:18.569Z,5.08
2023-01-13T20:43:21.558Z,5.03
2023-01-13T20:46:24.674Z,5.00
2023-01-13T20:49:28.172Z,4.98
2023-01-13T20:52:58.469Z,4.97
2023-01-13T20:57:14.445Z,4.94
2023-01-13T21:00:51.900Z,4.95
2023-01-13T21:04:48.063Z,4.98
2023-01-13T21:08:59.557Z,5.01
2023-01-13T21:12:47.571Z,5.05
2023-01-13T21:16:25.812Z,5.08
2023-01-13T21:19:42.838Z,5.09
2023-01-13T21:22:48.242Z,5.07
2023-01-13T21:26:12.208Z,5.03
2023-01-13T21:29:23.565Z,4.99
2023-01-13T21:33:35.726Z,5.00
2023-01-13T21:37:54.933Z,4.95
2023-01-13T21:41:28.888Z,4.92
2023-01-13T21:45:33.388Z,4.89
2023-01-13T21:49:01.517Z,4.88
2023-01-13T21:52:09.938Z,4.88
2023-01-13T21:55:30.316Z,4.88
2023-01-13T21:59:00.880Z,4.89
2023-01-13T22:02:36.936Z,4.88
2023-01-13T22:05:56.773Z,4.88
2023-01-13T22:09:28.444Z,4.89
2023-01-13T22:12:36.617Z,4.91
2023-01-13T22:15:56.999Z,4.94
2023-01-13T22:19:17.713Z,4.96
2023-01-13T22:22:49.632Z,4.96
2023-01-13T22:26:14.111Z,4.97
2023-01-13T22:29:19.854Z,4.98
2023-01-13T22:32:39.003Z,4.99
2023-01-13T22:35:58.287Z,5.00
2023-01-13T22:39:03.946Z,5.03
2023-01-13T22:42:09.223Z,5.05
2023-01-13T22:45:22.022Z,5.07
2023-01-13T22:48:58.211Z,5.09
2023-01-13T22:52:14.167Z,5.16
2023-01-13T22:55:54.143Z,5.14
2023-01-13T22:59:11.637Z,5.02
2023-01-13T23:02:15.008Z,4.91
2023-01-13T23:05:35.585Z,4.78
2023-01-13T23:08:50.168Z,4.72
2023-01-13T23:12:05.535Z,4.65
2023-01-13T23:15:47.857Z,4.59
2023-01-13T23:24:34.857Z,4.44
2023-01-13T23:27:46.605Z,4.38
2023-01-13T23:30:58.739Z,4.34
2023-01-13T23:34:26.149Z,4.31
2023-01-13T23:38:07.608Z,4.26
2023-01-13T23:41:36.471Z,4.22
2023-01-13T23:44:41.137Z,4.17
2023-01-13T23:47:50.555Z,4.13
2023-01-13T23:51:04.324Z,4.06
2023-01-13T23:54:10.193Z,3.99
